Aviation Digital Data Service (ADDS)

Output produced by METARs form (1128 UTC 18 June 2019)
found at http://www.aviationweather.gov/metar/data/
 
Forecast for: LWSK (SKOPJE/PETROVAC , MK)
Text: TAF LWSK 180830Z 1809/1909 VRB02KT 9999 FEW030
Forecast period: 0900 UTC 18 June 2019 to 0900 UTC 19 June 2019
Forecast type: FROM: standard forecast or significant change
Winds: variable direction winds at 2 MPH (2 knots; 1.0 m/s)
Visibility: 6 or more miles 10+ km)
Ceiling: at least 12,000 feet AGL
Clouds: few clouds at 3000 feet AGL
Weather: no significant weather forecast for this period
Text: TEMPO 1811/1820 VRB20KT TSRA FEW033CB BKN040
Forecast period: 1100 to 2000 UTC 18 June 2019
Forecast type: TEMPORARY: The following changes expected for less than half the time period
Winds: variable direction winds at 23 MPH (20 knots; 10.3 m/s)
Visibility: missing
Ceiling: 4000 feet AGL
Clouds: few clouds at 3300 feet AGL
broken clouds at 4000 feet AGL
Weather: TSRA  (rain associated with thunderstorm(s))